createdAt,value
2019-03-18T00:01:41.158Z,4.68
2019-03-18T00:04:12.105Z,4.64
2019-03-18T00:06:43.184Z,4.64
2019-03-18T00:09:14.039Z,4.67
2019-03-18T00:11:44.964Z,4.67
2019-03-18T00:14:15.917Z,4.65
2019-03-18T00:16:46.803Z,4.59
2019-03-18T00:19:17.758Z,4.57
2019-03-18T00:21:48.818Z,4.58
2019-03-18T00:24:19.686Z,4.57
2019-03-18T00:26:50.626Z,4.52
2019-03-18T00:29:21.586Z,4.48
2019-03-18T00:31:52.436Z,4.47
2019-03-18T00:34:23.491Z,4.46
2019-03-18T00:36:54.463Z,4.40
2019-03-18T00:39:25.344Z,4.38
2019-03-18T00:41:56.330Z,4.33
2019-03-18T00:44:27.275Z,4.33
2019-03-18T00:46:58.269Z,4.28
2019-03-18T00:49:29.143Z,4.26
2019-03-18T00:52:00.209Z,4.20
2019-03-18T00:54:31.096Z,4.19
2019-03-18T00:57:01.968Z,4.16
2019-03-18T00:59:32.967Z,4.13
2019-03-18T01:02:04.339Z,4.10
2019-03-18T01:04:35.279Z,4.08
2019-03-18T01:07:06.283Z,4.07
2019-03-18T01:09:37.172Z,4.06
2019-03-18T01:12:08.051Z,4.03
2019-03-18T01:14:38.995Z,3.97
2019-03-18T01:17:09.935Z,3.90
2019-03-18T01:19:40.897Z,3.83
2019-03-18T01:22:11.835Z,3.87
2019-03-18T01:24:42.797Z,3.92
2019-03-18T01:27:13.683Z,3.94
2019-03-18T01:29:44.561Z,3.93
2019-03-18T01:32:15.631Z,3.93
2019-03-18T01:34:46.558Z,3.89
2019-03-18T01:37:17.430Z,3.87
2019-03-18T01:39:48.378Z,3.89
2019-03-18T01:42:19.276Z,3.88
2019-03-18T01:44:50.173Z,3.90
2019-03-18T01:47:21.071Z,3.88
2019-03-18T01:49:52.014Z,3.84
2019-03-18T01:52:22.956Z,3.79
2019-03-18T01:54:53.822Z,3.72
2019-03-18T01:57:24.716Z,3.73
2019-03-18T01:59:55.735Z,3.70
2019-03-18T02:02:26.764Z,3.70
2019-03-18T02:04:57.828Z,3.67
2019-03-18T02:07:28.761Z,3.61
2019-03-18T02:09:59.701Z,3.53
2019-03-18T02:12:30.565Z,3.47
2019-03-18T02:15:01.461Z,3.44
2019-03-18T02:17:32.329Z,3.40
2019-03-18T02:20:03.793Z,3.43
2019-03-18T02:22:34.691Z,3.52
2019-03-18T02:25:07.990Z,3.49
2019-03-18T02:27:39.238Z,3.56
2019-03-18T02:30:12.642Z,3.55
2019-03-18T02:32:43.635Z,3.56
2019-03-18T02:35:14.632Z,3.55
2019-03-18T02:37:45.572Z,3.57
2019-03-18T02:40:16.524Z,3.50
2019-03-18T02:42:47.539Z,3.50
2019-03-18T02:45:18.501Z,3.45
2019-03-18T02:47:49.502Z,3.35
2019-03-18T02:50:20.457Z,3.35
2019-03-18T02:52:51.507Z,3.36
2019-03-18T02:55:22.417Z,3.32
2019-03-18T02:57:53.305Z,3.32
2019-03-18T03:00:24.231Z,3.28
2019-03-18T03:02:55.349Z,3.22
2019-03-18T03:05:26.235Z,3.25
2019-03-18T03:07:57.210Z,3.23
2019-03-18T03:10:28.166Z,3.18
2019-03-18T03:12:59.213Z,3.15
2019-03-18T03:15:30.113Z,3.04
2019-03-18T03:18:01.021Z,2.98
2019-03-18T03:20:32.237Z,2.90
2019-03-18T03:23:03.275Z,2.79
2019-03-18T03:25:34.497Z,2.75
2019-03-18T03:28:05.459Z,2.69
2019-03-18T03:30:36.349Z,2.72
2019-03-18T03:33:07.248Z,2.62
2019-03-18T03:35:38.220Z,2.56
2019-03-18T03:38:09.239Z,2.59
2019-03-18T03:40:40.261Z,2.55
2019-03-18T03:43:11.156Z,2.45
2019-03-18T03:45:42.169Z,2.42
2019-03-18T03:48:13.156Z,2.32
2019-03-18T03:50:44.192Z,2.21
2019-03-18T03:53:15.138Z,2.20
2019-03-18T03:55:46.199Z,2.26
2019-03-18T03:58:17.387Z,2.18
2019-03-18T04:00:48.455Z,2.19
2019-03-18T04:03:19.502Z,2.23
2019-03-18T04:05:50.501Z,2.29
2019-03-18T04:08:21.519Z,2.33
2019-03-18T04:10:52.469Z,2.47
2019-03-18T04:13:24.497Z,2.63
2019-03-18T04:15:55.592Z,2.74
2019-03-18T04:18:26.579Z,2.82
2019-03-18T04:20:57.544Z,2.87
2019-03-18T04:23:28.573Z,2.84
2019-03-18T04:25:59.529Z,2.78
2019-03-18T04:28:30.406Z,2.74
2019-03-18T04:31:01.311Z,2.77
2019-03-18T04:33:32.225Z,2.79
2019-03-18T04:36:03.238Z,2.73
2019-03-18T04:38:34.228Z,2.66
2019-03-18T04:41:05.248Z,2.65
2019-03-18T04:43:36.293Z,2.65
2019-03-18T04:46:07.183Z,2.61
2019-03-18T04:48:38.268Z,2.56
2019-03-18T04:51:09.206Z,2.54
2019-03-18T04:53:40.225Z,2.54
2019-03-18T04:56:11.425Z,2.55
2019-03-18T04:58:42.353Z,2.52
2019-03-18T05:01:13.617Z,2.50
2019-03-18T05:03:47.646Z,2.41
2019-03-18T05:06:18.547Z,2.40
2019-03-18T05:08:49.475Z,2.43
2019-03-18T05:11:20.383Z,2.44
2019-03-18T05:13:51.440Z,2.43
2019-03-18T05:16:22.595Z,2.39
2019-03-18T05:18:53.613Z,2.37
2019-03-18T05:21:24.578Z,2.33
2019-03-18T05:23:55.430Z,2.32
2019-03-18T05:26:26.418Z,2.29
2019-03-18T05:28:57.403Z,2.26
2019-03-18T05:31:28.452Z,2.26
2019-03-18T05:33:59.577Z,2.18
2019-03-18T05:36:31.143Z,2.13
2019-03-18T05:39:02.101Z,2.05
2019-03-18T05:41:33.228Z,2.01
2019-03-18T05:44:04.239Z,1.99
2019-03-18T05:46:35.092Z,2.02
2019-03-18T05:49:06.227Z,2.08
2019-03-18T05:51:37.179Z,2.11
2019-03-18T05:54:10.499Z,2.23
2019-03-18T05:56:41.586Z,2.26
2019-03-18T05:59:12.491Z,2.32
2019-03-18T06:01:43.604Z,2.52
2019-03-18T06:04:18.734Z,2.51
2019-03-18T06:06:49.844Z,2.47
2019-03-18T06:09:20.811Z,2.53
2019-03-18T06:11:54.884Z,2.54
2019-03-18T06:14:28.424Z,2.60
2019-03-18T06:16:59.828Z,2.61
2019-03-18T06:19:30.874Z,2.61
2019-03-18T06:22:01.867Z,2.66
2019-03-18T06:24:32.857Z,2.65
2019-03-18T06:27:04.257Z,3.17
2019-03-18T06:29:35.135Z,3.52
2019-03-18T06:32:06.098Z,3.63
2019-03-18T06:34:37.138Z,3.66
2019-03-18T06:37:08.134Z,3.69
2019-03-18T06:39:39.058Z,3.75
2019-03-18T06:42:10.086Z,3.84
2019-03-18T06:44:41.016Z,3.98
2019-03-18T06:47:12.057Z,4.08
2019-03-18T06:49:43.052Z,4.17
2019-03-18T06:52:13.956Z,4.33
2019-03-18T06:54:45.214Z,4.44
2019-03-18T06:57:16.172Z,4.52
2019-03-18T06:59:47.129Z,4.66
2019-03-18T07:02:18.074Z,4.72
2019-03-18T07:04:49.006Z,4.85
2019-03-18T07:07:19.958Z,5.07
2019-03-18T07:09:50.931Z,5.16
2019-03-18T07:12:21.842Z,5.21
2019-03-18T07:14:52.816Z,5.37
2019-03-18T07:17:23.789Z,5.55
2019-03-18T07:19:54.750Z,5.72
2019-03-18T07:22:25.704Z,6.02
2019-03-18T07:24:56.667Z,5.93
2019-03-18T07:27:27.629Z,5.89
2019-03-18T07:29:58.746Z,6.09
2019-03-18T07:32:29.607Z,6.05
2019-03-18T07:35:00.739Z,6.06
2019-03-18T07:37:31.632Z,5.83
2019-03-18T07:40:02.818Z,5.72
2019-03-18T07:42:33.961Z,5.60
2019-03-18T07:45:07.628Z,5.68
2019-03-18T07:47:38.654Z,5.70
2019-03-18T07:50:12.192Z,5.67
2019-03-18T07:52:43.241Z,5.90
2019-03-18T07:55:14.312Z,5.94
2019-03-18T07:57:45.310Z,5.75
2019-03-18T08:00:16.872Z,5.72
2019-03-18T08:02:47.712Z,5.72
2019-03-18T08:05:18.658Z,5.68
2019-03-18T08:07:49.702Z,5.60
2019-03-18T08:10:20.732Z,5.48
2019-03-18T08:12:51.777Z,5.47
2019-03-18T08:15:22.813Z,5.66
2019-03-18T08:17:53.834Z,5.84
2019-03-18T08:20:24.761Z,5.75
2019-03-18T08:22:55.791Z,5.69
2019-03-18T08:25:26.779Z,5.49
2019-03-18T08:27:57.639Z,5.39
2019-03-18T08:30:28.752Z,5.27
2019-03-18T08:32:59.690Z,5.21
2019-03-18T08:35:30.605Z,5.09
2019-03-18T08:38:01.529Z,5.04
2019-03-18T08:40:32.447Z,4.79
2019-03-18T08:43:03.491Z,4.66
2019-03-18T08:45:34.529Z,4.41
2019-03-18T08:48:05.541Z,4.14
2019-03-18T08:50:36.590Z,3.95
2019-03-18T08:53:07.495Z,3.83
2019-03-18T08:55:38.558Z,3.89
2019-03-18T08:58:09.527Z,3.88
2019-03-18T09:00:40.641Z,3.93
2019-03-18T09:03:11.628Z,4.04
2019-03-18T09:05:42.624Z,4.20
2019-03-18T09:08:13.642Z,4.34
2019-03-18T09:10:44.586Z,4.37
2019-03-18T09:13:15.637Z,4.60
2019-03-18T09:15:46.591Z,4.80
2019-03-18T09:18:17.551Z,4.91
2019-03-18T09:20:48.417Z,5.09
2019-03-18T09:23:19.375Z,5.21
2019-03-18T09:25:50.329Z,5.35
2019-03-18T09:28:22.326Z,5.63
2019-03-18T09:30:53.408Z,5.57
2019-03-18T09:33:24.339Z,5.49
2019-03-18T09:35:55.403Z,5.41
2019-03-18T09:38:26.519Z,5.47
2019-03-18T09:40:57.582Z,5.30
2019-03-18T09:43:28.607Z,5.24
2019-03-18T09:45:59.599Z,5.21
2019-03-18T09:48:30.698Z,5.34
2019-03-18T09:51:01.679Z,5.44
2019-03-18T09:53:32.719Z,5.61
2019-03-18T09:56:03.739Z,5.47
2019-03-18T09:58:34.744Z,5.63
2019-03-18T10:01:05.727Z,5.63
2019-03-18T10:03:36.689Z,6.96
2019-03-18T10:06:07.694Z,8.47
2019-03-18T10:08:38.559Z,10.08
2019-03-18T10:11:09.706Z,8.89
2019-03-18T10:13:40.629Z,7.72
2019-03-18T10:16:11.583Z,7.77
2019-03-18T10:18:42.472Z,8.19
2019-03-18T10:21:13.490Z,8.28
2019-03-18T10:23:44.468Z,8.04
2019-03-18T10:26:15.399Z,7.43
2019-03-18T10:28:46.367Z,7.15
2019-03-18T10:31:17.389Z,8.20
2019-03-18T10:33:48.344Z,9.29
2019-03-18T10:36:19.329Z,9.53
2019-03-18T10:38:52.610Z,9.73
2019-03-18T10:41:23.043Z,9.74
2019-03-18T10:43:53.924Z,9.25
2019-03-18T10:46:26.246Z,8.71
2019-03-18T10:48:57.464Z,8.90
2019-03-18T10:51:28.500Z,8.89
2019-03-18T10:53:59.558Z,8.26
2019-03-18T10:56:30.440Z,7.84
2019-03-18T10:59:01.644Z,7.68
2019-03-18T11:01:32.637Z,7.73
2019-03-18T11:04:03.558Z,7.78
2019-03-18T11:06:34.459Z,7.84
2019-03-18T11:09:06.969Z,7.99
2019-03-18T11:11:37.837Z,8.72
2019-03-18T11:14:08.797Z,8.87
2019-03-18T11:16:39.842Z,8.37
2019-03-18T11:19:10.887Z,8.09
2019-03-18T11:21:41.774Z,7.35
2019-03-18T11:24:12.760Z,7.07
2019-03-18T11:26:43.802Z,7.03
2019-03-18T11:29:14.988Z,7.06
2019-03-18T11:31:45.891Z,7.01
2019-03-18T11:34:16.853Z,6.89
2019-03-18T11:36:47.984Z,6.90
2019-03-18T11:39:19.109Z,6.81
2019-03-18T11:41:50.166Z,6.89
2019-03-18T11:44:21.123Z,7.00
2019-03-18T11:46:52.150Z,7.04
2019-03-18T11:49:23.160Z,6.87
2019-03-18T11:51:54.083Z,6.66
2019-03-18T11:54:25.169Z,6.62
2019-03-18T11:56:56.374Z,6.79
2019-03-18T11:59:27.656Z,6.93
2019-03-18T12:01:58.508Z,6.83
2019-03-18T12:04:29.426Z,6.90
2019-03-18T12:07:00.468Z,6.97
2019-03-18T12:09:31.555Z,7.14
2019-03-18T12:12:02.692Z,7.33
2019-03-18T12:14:33.557Z,7.32
2019-03-18T12:17:04.521Z,7.09
2019-03-18T12:19:35.413Z,6.42
2019-03-18T12:22:06.289Z,5.95
2019-03-18T12:24:37.508Z,5.55
2019-03-18T12:27:08.537Z,5.37
2019-03-18T12:29:39.536Z,5.38
2019-03-18T12:32:10.480Z,5.47
2019-03-18T12:34:41.421Z,5.64
2019-03-18T12:37:12.461Z,5.78
2019-03-18T12:39:43.426Z,5.94
2019-03-18T12:42:14.537Z,6.53
2019-03-18T12:44:45.455Z,7.07
2019-03-18T12:47:16.398Z,7.39
2019-03-18T12:49:47.351Z,7.46
2019-03-18T12:52:18.195Z,7.85
2019-03-18T12:54:49.437Z,8.72
2019-03-18T12:57:20.385Z,8.95
2019-03-18T12:59:51.313Z,9.45
2019-03-18T13:02:22.297Z,10.05
2019-03-18T13:04:53.331Z,10.61
2019-03-18T13:07:24.241Z,10.70
2019-03-18T13:09:55.280Z,9.82
2019-03-18T13:12:26.125Z,9.19
2019-03-18T13:14:57.011Z,8.50
2019-03-18T13:17:27.926Z,8.54
2019-03-18T13:19:58.951Z,9.28
2019-03-18T13:22:30.069Z,10.67
2019-03-18T13:25:05.751Z,11.57
2019-03-18T13:27:36.755Z,12.22
2019-03-18T13:30:10.729Z,12.93
2019-03-18T13:32:44.002Z,12.38
2019-03-18T13:35:21.300Z,12.93
2019-03-18T13:37:52.177Z,13.77
2019-03-18T13:40:23.263Z,13.52
2019-03-18T13:42:54.296Z,12.37
2019-03-18T13:45:25.302Z,11.39
2019-03-18T13:47:56.535Z,11.05
2019-03-18T13:50:27.701Z,10.61
2019-03-18T13:52:58.663Z,10.95
2019-03-18T13:55:31.865Z,11.99
2019-03-18T13:58:02.531Z,12.68
2019-03-18T14:00:33.528Z,12.86
2019-03-18T14:03:04.583Z,13.22
2019-03-18T14:05:35.591Z,12.82
2019-03-18T14:08:06.602Z,13.29
2019-03-18T14:10:37.658Z,13.97
2019-03-18T14:13:08.739Z,14.55
2019-03-18T14:15:39.707Z,13.44
2019-03-18T14:18:10.637Z,11.42
2019-03-18T14:20:41.517Z,10.48
2019-03-18T14:23:12.485Z,10.16
2019-03-18T14:25:45.527Z,9.80
2019-03-18T14:28:16.317Z,9.87
2019-03-18T14:30:47.207Z,11.11
2019-03-18T14:33:18.116Z,11.28
2019-03-18T14:35:49.195Z,10.01
2019-03-18T14:38:20.201Z,9.25
2019-03-18T14:40:51.117Z,8.73
2019-03-18T14:43:22.107Z,8.52
2019-03-18T14:45:52.967Z,8.28
2019-03-18T14:48:23.923Z,8.14
2019-03-18T14:50:54.898Z,8.11
2019-03-18T14:53:25.909Z,8.95
2019-03-18T14:55:57.159Z,8.85
2019-03-18T14:58:28.050Z,9.28
2019-03-18T15:00:58.964Z,9.98
2019-03-18T15:03:30.081Z,10.18
2019-03-18T15:06:01.097Z,10.44
2019-03-18T15:08:32.253Z,9.24
2019-03-18T15:11:03.210Z,8.57
2019-03-18T15:13:34.166Z,7.87
2019-03-18T15:16:05.469Z,7.52
2019-03-18T15:18:36.341Z,8.41
2019-03-18T15:21:07.568Z,9.99
2019-03-18T15:23:38.444Z,11.15
2019-03-18T15:26:09.414Z,11.68
2019-03-18T15:28:40.999Z,11.80
2019-03-18T15:31:11.873Z,12.13
2019-03-18T15:33:42.757Z,12.59
2019-03-18T15:36:13.806Z,12.16
2019-03-18T15:38:46.296Z,11.99
2019-03-18T15:41:17.327Z,11.72
2019-03-18T15:43:48.364Z,11.67
2019-03-18T15:46:19.398Z,10.89
2019-03-18T15:48:50.355Z,11.17
2019-03-18T15:51:23.473Z,9.90
2019-03-18T15:53:54.472Z,9.50
2019-03-18T15:56:30.328Z,9.34
2019-03-18T15:59:01.291Z,9.32
2019-03-18T16:01:32.798Z,8.71
2019-03-18T16:04:03.859Z,8.64
2019-03-18T16:06:34.769Z,8.49
2019-03-18T16:09:07.683Z,8.07
2019-03-18T16:11:38.622Z,7.68
2019-03-18T16:14:09.527Z,7.63
2019-03-18T16:16:40.484Z,7.50
2019-03-18T16:19:11.483Z,6.97
2019-03-18T16:21:42.438Z,6.03
2019-03-18T16:24:13.393Z,5.49
2019-03-18T16:26:44.458Z,5.21
2019-03-18T16:29:15.380Z,4.79
2019-03-18T16:31:46.319Z,4.69
2019-03-18T16:34:17.300Z,4.77
2019-03-18T16:36:48.482Z,5.35
2019-03-18T16:39:19.446Z,6.12
2019-03-18T16:41:50.453Z,6.69
2019-03-18T16:44:21.389Z,7.02
2019-03-18T16:46:52.406Z,7.06
2019-03-18T16:49:23.270Z,6.98
2019-03-18T16:51:54.250Z,6.40
2019-03-18T16:54:25.122Z,6.01
2019-03-18T16:56:56.080Z,5.53
2019-03-18T16:59:26.966Z,5.33
2019-03-18T17:01:57.846Z,5.15
2019-03-18T17:04:28.818Z,4.98
2019-03-18T17:06:59.797Z,4.94
2019-03-18T17:09:30.902Z,4.84
2019-03-18T17:12:01.884Z,4.74
2019-03-18T17:14:32.813Z,4.66
2019-03-18T17:17:03.875Z,4.63
2019-03-18T17:19:35.020Z,4.62
2019-03-18T17:22:06.361Z,4.58
2019-03-18T17:24:37.256Z,4.52
2019-03-18T17:27:08.224Z,4.42
2019-03-18T17:29:39.160Z,4.39
2019-03-18T17:32:10.239Z,4.40
2019-03-18T17:34:41.249Z,4.38
2019-03-18T17:37:12.181Z,4.33
2019-03-18T17:39:44.101Z,4.35
2019-03-18T17:42:15.220Z,4.38
2019-03-18T17:44:46.252Z,4.48
2019-03-18T17:47:17.209Z,4.59
2019-03-18T17:49:48.235Z,4.67
2019-03-18T17:52:19.121Z,4.71
2019-03-18T17:54:50.157Z,4.67
2019-03-18T17:57:21.178Z,4.66
2019-03-18T17:59:52.063Z,4.65
2019-03-18T18:02:37.419Z,4.71
2019-03-18T18:05:15.039Z,4.66
2019-03-18T18:07:46.075Z,4.58
2019-03-18T18:10:17.724Z,4.46
2019-03-18T18:12:48.945Z,4.34
2019-03-18T18:15:20.420Z,4.27
2019-03-18T18:17:51.632Z,4.16
2019-03-18T18:20:22.909Z,3.92
2019-03-18T18:22:53.843Z,3.77
2019-03-18T18:25:25.150Z,3.67
2019-03-18T18:27:56.333Z,3.52
2019-03-18T18:30:28.287Z,3.44
2019-03-18T18:32:59.763Z,3.35
2019-03-18T18:35:30.709Z,3.31
2019-03-18T18:38:01.733Z,3.29
2019-03-18T18:40:33.321Z,3.30
2019-03-18T18:43:05.691Z,3.33
2019-03-18T18:45:36.695Z,3.31
2019-03-18T18:48:19.104Z,3.29
2019-03-18T18:50:50.896Z,3.28
2019-03-18T18:53:26.470Z,3.26
2019-03-18T18:55:56.563Z,3.27
2019-03-18T18:58:27.602Z,3.31
2019-03-18T19:01:00.150Z,3.36
2019-03-18T19:03:31.246Z,3.51
2019-03-18T19:06:02.366Z,3.56
2019-03-18T19:08:33.527Z,3.62
2019-03-18T19:11:04.701Z,3.67
2019-03-18T19:13:35.659Z,3.68
2019-03-18T19:16:06.576Z,3.71
2019-03-18T19:18:38.371Z,3.76
2019-03-18T19:21:09.514Z,3.76
2019-03-18T19:23:40.476Z,3.76
2019-03-18T19:26:11.401Z,3.76
2019-03-18T19:28:42.460Z,3.77
2019-03-18T19:31:13.400Z,3.80
2019-03-18T19:33:44.525Z,3.78
2019-03-18T19:36:15.441Z,3.74
2019-03-18T19:38:46.465Z,3.71
2019-03-18T19:41:17.400Z,3.68
2019-03-18T19:43:48.386Z,3.62
2019-03-18T19:46:19.249Z,3.54
2019-03-18T19:48:50.284Z,3.43
2019-03-18T19:51:21.219Z,3.33
2019-03-18T19:53:52.329Z,3.21
2019-03-18T19:56:23.260Z,3.14
2019-03-18T19:58:54.196Z,3.08
2019-03-18T20:01:25.180Z,2.96
2019-03-18T20:03:56.180Z,2.89
2019-03-18T20:06:27.164Z,2.85
2019-03-18T20:08:58.039Z,2.81
2019-03-18T20:11:29.148Z,2.84
2019-03-18T20:14:00.234Z,2.84
2019-03-18T20:16:31.280Z,2.72
2019-03-18T20:19:02.131Z,2.67
2019-03-18T20:21:34.733Z,2.59
2019-03-18T20:24:05.823Z,2.56
2019-03-18T20:26:36.940Z,2.60
2019-03-18T20:29:07.880Z,2.74
2019-03-18T20:31:38.758Z,2.72
2019-03-18T20:34:09.748Z,2.75
2019-03-18T20:36:40.748Z,2.77
2019-03-18T20:39:11.941Z,2.75
2019-03-18T20:41:42.944Z,2.66
2019-03-18T20:44:13.887Z,2.65
2019-03-18T20:46:44.773Z,2.70
2019-03-18T20:49:17.027Z,2.77
2019-03-18T20:51:49.658Z,2.78
2019-03-18T20:54:20.517Z,2.79
2019-03-18T20:56:51.450Z,2.84
2019-03-18T20:59:22.345Z,2.83
2019-03-18T21:01:53.522Z,2.83
2019-03-18T21:04:24.647Z,2.90
2019-03-18T21:06:55.732Z,2.92
2019-03-18T21:09:26.673Z,2.88
2019-03-18T21:11:57.579Z,2.83
2019-03-18T21:14:35.752Z,2.79
2019-03-18T21:17:06.894Z,2.73
2019-03-18T21:19:38.133Z,2.70
2019-03-18T21:22:09.602Z,2.63
2019-03-18T21:24:40.567Z,2.54
2019-03-18T21:27:11.956Z,2.47
2019-03-18T21:29:42.957Z,2.57
2019-03-18T21:32:13.925Z,2.68
2019-03-18T21:34:44.979Z,2.67
2019-03-18T21:37:15.879Z,2.78
2019-03-18T21:39:46.996Z,2.77
2019-03-18T21:42:17.995Z,2.75
2019-03-18T21:44:49.034Z,2.81
2019-03-18T21:47:19.989Z,2.79
2019-03-18T21:49:50.916Z,2.68
2019-03-18T21:52:21.888Z,2.56
2019-03-18T21:54:52.959Z,2.48
2019-03-18T21:57:24.013Z,2.43
2019-03-18T21:59:57.445Z,2.39
2019-03-18T22:02:27.871Z,2.36
2019-03-18T22:04:58.803Z,2.35
2019-03-18T22:07:30.056Z,2.33
2019-03-18T22:10:01.029Z,2.31
2019-03-18T22:12:32.001Z,2.41
2019-03-18T22:15:02.879Z,2.43
2019-03-18T22:17:33.895Z,2.41
2019-03-18T22:20:08.047Z,2.44
2019-03-18T22:22:38.933Z,2.47
2019-03-18T22:25:11.523Z,2.46
2019-03-18T22:27:42.570Z,2.44
2019-03-18T22:30:15.104Z,2.48
2019-03-18T22:32:46.148Z,2.44
2019-03-18T22:35:17.339Z,2.41
2019-03-18T22:37:48.272Z,2.38
2019-03-18T22:40:19.410Z,2.30
2019-03-18T22:42:50.449Z,2.31
2019-03-18T22:45:21.336Z,2.28
2019-03-18T22:47:52.373Z,2.21
2019-03-18T22:50:23.365Z,2.24
2019-03-18T22:52:54.216Z,2.17
2019-03-18T22:55:25.153Z,2.14
2019-03-18T22:57:56.073Z,2.04
2019-03-18T23:00:44.870Z,1.88
2019-03-18T23:03:15.995Z,1.77
2019-03-18T23:05:47.223Z,1.62
2019-03-18T23:08:18.177Z,1.53
2019-03-18T23:10:51.558Z,1.47
2019-03-18T23:13:22.544Z,1.48
2019-03-18T23:15:53.434Z,1.41
2019-03-18T23:18:24.518Z,1.41
2019-03-18T23:20:55.482Z,1.35
2019-03-18T23:23:26.375Z,1.30
2019-03-18T23:25:57.303Z,1.28
2019-03-18T23:28:28.235Z,1.22
2019-03-18T23:30:59.267Z,1.11
2019-03-18T23:33:30.154Z,1.07
2019-03-18T23:36:01.044Z,1.05
2019-03-18T23:38:32.077Z,0.93
2019-03-18T23:41:03.047Z,0.81
2019-03-18T23:43:34.077Z,0.76
2019-03-18T23:46:05.123Z,0.72
2019-03-18T23:48:36.043Z,0.78
2019-03-18T23:51:07.236Z,0.75
2019-03-18T23:53:38.247Z,0.67
2019-03-18T23:56:09.210Z,0.66
2019-03-18T23:58:40.180Z,0.65
